Time;durP1;ratioP1;P1;durP2;ratioP2;P2;SDS_P1;SDS_P2;PMS_P1;PMS_P2;Temp;Humidity;BMP_temperature;BMP_pressure;BME280_temperature;BME280_humidity;BME280_pressure;Samples;Min_cycle;Max_cycle;Signal;HPM_P1;HPM_P2
2021/09/24 00:04:46;;;;;;;6.50;4.10;;;;;;;16.91;61.21;98034.40;236335;1195;139103;-62
2021/09/24 00:09:49;;;;;;;7.10;3.80;;;;;;;16.93;61.31;98032.20;235863;1195;139425;-62
2021/09/24 00:14:52;;;;;;;5.50;4.30;;;;;;;16.94;61.03;98027.67;236103;1195;138725;-63
2021/09/24 00:19:56;;;;;;;5.50;4.00;;;;;;;16.92;60.90;98023.56;236265;1195;138272;-62
2021/09/24 00:24:59;;;;;;;8.20;4.60;;;;;;;16.91;61.11;98031.55;235884;1195;139365;-64
2021/09/24 00:30:03;;;;;;;7.80;4.00;;;;;;;16.91;61.01;98034.02;235600;1195;140180;-62
2021/09/24 00:35:07;;;;;;;6.70;4.20;;;;;;;16.88;60.94;98041.12;235548;1194;139998;-62
2021/09/24 00:40:12;;;;;;;7.70;3.70;;;;;;;16.88;60.68;98040.27;236063;1195;141440;-63
2021/09/24 00:45:15;;;;;;;6.80;4.40;;;;;;;16.88;60.74;98053.85;236274;1194;139529;-62
2021/09/24 00:50:18;;;;;;;7.10;4.10;;;;;;;16.89;60.89;98041.42;236221;1195;139624;-62
2021/09/24 00:55:22;;;;;;;8.30;4.00;;;;;;;16.87;60.85;98057.77;235902;1195;139422;-63
2021/09/24 01:00:26;;;;;;;7.10;3.70;;;;;;;16.83;60.73;98049.89;236013;1195;138415;-63
2021/09/24 01:05:29;;;;;;;5.80;3.90;;;;;;;16.80;60.92;98031.42;236357;1195;138762;-62
2021/09/24 01:10:33;;;;;;;8.10;3.60;;;;;;;16.78;60.66;98017.65;235918;1195;140366;-63
2021/09/24 01:15:36;;;;;;;6.10;3.80;;;;;;;16.76;60.79;98010.06;236208;1195;138796;-61
2021/09/24 01:20:39;;;;;;;5.80;3.80;;;;;;;16.77;60.79;98009.14;236303;1195;138413;-63
2021/09/24 01:25:42;;;;;;;4.60;3.90;;;;;;;16.75;60.79;98001.27;236355;1195;139960;-61
2021/09/24 01:30:46;;;;;;;7.90;3.80;;;;;;;16.74;60.64;98003.92;236187;1195;139671;-62
2021/09/24 01:35:49;;;;;;;7.70;4.30;;;;;;;16.72;60.60;97998.01;236257;1195;139304;-60
2021/09/24 01:40:52;;;;;;;7.00;3.90;;;;;;;16.74;60.64;98000.15;236266;1195;138126;-62
2021/09/24 01:45:55;;;;;;;9.00;3.80;;;;;;;16.75;60.37;98009.51;236057;1195;138381;-62
2021/09/24 01:50:59;;;;;;;7.70;4.00;;;;;;;16.78;60.37;98005.32;236246;1195;140032;-59
2021/09/24 01:56:02;;;;;;;5.80;3.20;;;;;;;16.78;60.33;97997.91;236359;1195;139730;-60
2021/09/24 02:01:05;;;;;;;9.60;3.90;;;;;;;16.81;60.26;98004.09;235845;1190;139784;-62
2021/09/24 02:06:09;;;;;;;7.90;3.90;;;;;;;16.82;60.16;97996.85;235880;1195;141531;-61
2021/09/24 02:11:12;;;;;;;6.90;3.90;;;;;;;16.85;60.16;97998.11;236006;1195;140288;-62
2021/09/24 02:16:15;;;;;;;6.90;3.90;;;;;;;16.86;60.12;98027.02;236133;1195;138847;-60
2021/09/24 02:21:19;;;;;;;8.40;4.40;;;;;;;16.87;60.08;98024.76;236353;1195;139357;-60
2021/09/24 02:26:22;;;;;;;8.80;4.10;;;;;;;16.90;60.03;98072.33;235639;1196;138368;-60
2021/09/24 02:31:44;;;;;;;6.50;3.20;;;;;;;16.90;60.44;98094.95;236187;1195;139648;-59
2021/09/24 02:36:48;;;;;;;6.60;2.70;;;;;;;16.72;61.20;98103.89;236118;1195;139412;-60
2021/09/24 02:41:51;;;;;;;67.60;47.60;;;;;;;16.57;61.83;98102.70;235844;1196;139239;-62
2021/09/24 02:46:54;;;;;;;8.40;4.70;;;;;;;16.57;62.43;98108.05;236417;1195;138946;-60
2021/09/24 02:51:58;;;;;;;7.20;2.70;;;;;;;16.48;62.17;98120.40;236302;1195;140150;-62
2021/09/24 02:57:02;;;;;;;6.10;2.40;;;;;;;16.33;62.27;98133.78;235642;1195;138544;-63
2021/09/24 03:02:05;;;;;;;4.10;2.20;;;;;;;16.19;62.60;98138.05;236568;1195;138431;-62
2021/09/24 03:07:09;;;;;;;3.30;1.50;;;;;;;16.05;62.80;98149.80;236270;1195;139587;-60
2021/09/24 03:12:13;;;;;;;5.30;1.80;;;;;;;15.92;62.87;98166.85;236471;1195;139407;-62
2021/09/24 03:17:16;;;;;;;3.20;1.40;;;;;;;15.78;63.23;98174.78;235913;1195;138211;-62
2021/09/24 03:22:19;;;;;;;5.30;1.50;;;;;;;15.68;63.20;98176.73;236007;1195;138836;-60
2021/09/24 03:27:22;;;;;;;1.90;0.90;;;;;;;15.58;63.35;98182.77;236142;1195;141669;-61
2021/09/24 03:32:25;;;;;;;3.60;1.30;;;;;;;15.47;63.37;98184.61;235259;1195;139462;-61
2021/09/24 03:37:30;;;;;;;2.40;1.00;;;;;;;15.37;63.34;98180.55;236166;1195;138962;-60
2021/09/24 03:42:33;;;;;;;2.80;1.10;;;;;;;15.28;63.46;98189.92;236003;1195;138511;-60
2021/09/24 03:47:37;;;;;;;4.20;1.40;;;;;;;15.22;63.62;98197.33;236170;1195;138511;-59
2021/09/24 03:52:40;;;;;;;4.00;1.30;;;;;;;15.16;63.85;98193.24;235851;1195;140090;-60
2021/09/24 03:57:43;;;;;;;4.60;1.40;;;;;;;15.07;63.87;98193.92;235921;1195;140399;-62
2021/09/24 04:02:46;;;;;;;3.70;1.20;;;;;;;15.05;64.22;98201.73;235990;1195;139827;-61
2021/09/24 04:07:50;;;;;;;5.80;1.80;;;;;;;15.06;64.24;98194.18;236130;1195;138543;-62
2021/09/24 04:12:53;;;;;;;3.60;1.40;;;;;;;15.05;64.38;98188.96;235851;1195;139917;-61
2021/09/24 04:17:56;;;;;;;5.30;1.60;;;;;;;14.98;64.52;98196.19;235978;1195;139425;-62
2021/09/24 04:22:59;;;;;;;4.80;1.50;;;;;;;14.92;64.62;98202.83;235890;1195;138944;-62
2021/09/24 04:28:03;;;;;;;5.00;1.60;;;;;;;14.89;64.58;98212.01;236097;1195;138977;-62
2021/09/24 04:33:07;;;;;;;3.90;1.70;;;;;;;14.86;64.47;98224.48;236305;1195;139731;-63
2021/09/24 04:38:10;;;;;;;6.30;1.50;;;;;;;14.81;64.37;98223.99;236138;1194;139763;-63
2021/09/24 04:43:13;;;;;;;7.30;1.40;;;;;;;14.75;64.39;98227.41;235944;1195;138943;-62
2021/09/24 04:48:16;;;;;;;4.50;1.30;;;;;;;14.70;64.36;98227.73;235948;1195;138751;-60
2021/09/24 04:53:19;;;;;;;4.00;1.40;;;;;;;14.69;64.40;98236.60;236203;1195;140648;-60
2021/09/24 04:58:22;;;;;;;2.70;1.40;;;;;;;14.69;64.13;98242.83;235847;1194;140044;-62
2021/09/24 05:03:25;;;;;;;7.30;1.60;;;;;;;14.68;63.96;98250.08;235881;1195;138416;-63
2021/09/24 05:08:29;;;;;;;6.10;1.70;;;;;;;14.64;64.03;98253.97;235972;1195;138423;-63
2021/09/24 05:13:32;;;;;;;5.30;1.70;;;;;;;14.63;63.68;98256.58;235777;1195;139247;-63
2021/09/24 05:18:35;;;;;;;4.90;1.50;;;;;;;14.63;63.65;98267.30;236116;1195;139803;-63
2021/09/24 05:23:38;;;;;;;7.60;1.60;;;;;;;14.58;63.23;98269.71;235936;1195;138237;-61
2021/09/24 05:28:41;;;;;;;7.00;1.90;;;;;;;14.57;63.36;98276.08;236069;1195;138820;-63
2021/09/24 05:33:44;;;;;;;4.00;1.80;;;;;;;14.58;63.46;98289.37;236128;1195;138376;-61
2021/09/24 05:38:50;;;;;;;11.20;2.20;;;;;;;14.59;63.32;98288.70;235938;1195;140053;-61
2021/09/24 05:43:54;;;;;;;8.30;2.20;;;;;;;14.58;63.35;98289.47;235806;1195;140435;-61
2021/09/24 05:48:57;;;;;;;6.60;1.90;;;;;;;14.54;63.47;98300.07;236171;1195;138919;-65
2021/09/24 05:54:01;;;;;;;4.80;1.80;;;;;;;14.54;63.54;98301.53;235951;1195;248695;-66
2021/09/24 05:59:04;;;;;;;6.40;2.00;;;;;;;14.50;63.73;98293.67;235381;1195;139393;-64
2021/09/24 06:04:07;;;;;;;5.20;2.30;;;;;;;14.44;63.87;98307.00;235847;1195;139435;-62
2021/09/24 06:09:10;;;;;;;6.00;1.90;;;;;;;14.41;64.07;98315.31;236029;1195;138830;-62
2021/09/24 06:14:13;;;;;;;9.40;1.80;;;;;;;14.37;63.95;98323.11;236330;1193;138775;-63
2021/09/24 06:19:16;;;;;;;7.30;2.10;;;;;;;14.37;64.09;98340.48;235798;1195;235875;-62
2021/09/24 06:24:20;;;;;;;7.80;2.00;;;;;;;14.35;64.12;98355.08;235963;1195;139736;-59
2021/09/24 06:29:23;;;;;;;5.80;2.10;;;;;;;14.39;64.21;98367.93;236155;1195;139084;-63
2021/09/24 06:34:26;;;;;;;8.40;2.10;;;;;;;14.43;64.15;98378.08;235837;1195;139380;-60
2021/09/24 06:39:29;;;;;;;8.40;2.10;;;;;;;14.44;64.04;98373.52;235983;1195;139335;-61
2021/09/24 06:44:33;;;;;;;10.10;2.60;;;;;;;14.45;63.99;98368.70;235771;1195;140185;-61
2021/09/24 06:49:36;;;;;;;8.90;2.30;;;;;;;14.46;64.02;98378.24;235633;1194;139015;-61
2021/09/24 06:54:40;;;;;;;8.60;2.40;;;;;;;14.43;63.94;98383.45;236012;1195;138479;-63
2021/09/24 06:59:43;;;;;;;8.20;2.20;;;;;;;14.41;63.78;98391.29;235989;1195;139444;-63
2021/09/24 07:04:46;;;;;;;10.60;1.90;;;;;;;14.38;63.55;98393.67;235863;1195;139788;-62
2021/09/24 07:09:49;;;;;;;8.80;2.00;;;;;;;14.35;63.18;98396.14;235940;1194;138902;-62
2021/09/24 07:14:52;;;;;;;13.40;2.30;;;;;;;14.31;62.77;98398.80;236308;1195;139308;-63
2021/09/24 07:19:56;;;;;;;9.50;2.10;;;;;;;14.30;62.68;98401.05;236285;1195;139713;-62
2021/09/24 07:25:00;;;;;;;11.80;2.00;;;;;;;14.28;62.53;98404.10;235917;1195;139751;-61
2021/09/24 07:30:04;;;;;;;9.20;2.50;;;;;;;14.28;62.35;98423.18;236094;1194;139057;-62
2021/09/24 07:35:07;;;;;;;11.60;2.30;;;;;;;14.29;62.24;98427.91;236265;1194;139718;-63
2021/09/24 07:40:11;;;;;;;15.60;2.80;;;;;;;14.30;62.08;98437.06;235517;1195;139595;-62
2021/09/24 07:45:15;;;;;;;12.10;2.20;;;;;;;14.31;62.04;98439.81;235798;1195;139147;-61
2021/09/24 07:50:18;;;;;;;18.10;2.20;;;;;;;14.33;61.91;98445.54;235871;1195;138717;-62
2021/09/24 07:55:22;;;;;;;13.50;2.60;;;;;;;14.33;61.79;98430.52;235988;1195;141897;-64
2021/09/24 08:00:28;;;;;;;15.30;3.10;;;;;;;14.36;61.72;98437.77;235620;1195;139949;-62
2021/09/24 08:05:31;;;;;;;;;;;;;;;14.39;61.60;98447.36;235566;1195;139139;-61
2021/09/24 08:10:34;;;;;;;9.40;2.30;;;;;;;14.39;61.48;98452.36;236101;1195;125401;-62
2021/09/24 08:15:42;;;;;;;9.50;2.80;;;;;;;14.43;61.70;98446.80;235787;1195;140135;-61
2021/09/24 08:20:46;;;;;;;12.10;2.90;;;;;;;14.52;61.62;98452.30;236066;1195;140205;-65
2021/09/24 08:25:49;;;;;;;12.30;2.60;;;;;;;14.60;61.54;98461.79;235967;1194;139007;-63
2021/09/24 08:30:53;;;;;;;13.60;3.40;;;;;;;14.65;61.52;98471.54;236031;1195;138838;-63
2021/09/24 08:35:56;;;;;;;14.70;4.70;;;;;;;14.67;61.33;98471.56;236212;1195;139671;-62
2021/09/24 08:40:59;;;;;;;15.40;3.30;;;;;;;14.67;61.19;98475.30;235748;1195;141471;-62
2021/09/24 08:46:03;;;;;;;15.50;3.20;;;;;;;14.64;61.36;98483.05;235773;1195;139122;-61
2021/09/24 08:51:07;;;;;;;11.40;2.80;;;;;;;14.63;61.42;98483.52;235855;1195;138687;-63
2021/09/24 08:56:14;;;;;;;15.50;3.20;;;;;;;14.64;61.50;98496.82;236025;1195;139626;-63
2021/09/24 09:01:17;;;;;;;12.00;3.10;;;;;;;14.60;61.23;98498.73;235950;1195;141476;-62
2021/09/24 09:06:21;;;;;;;11.00;2.80;;;;;;;14.54;60.99;98512.16;235750;1195;138759;-63
2021/09/24 09:11:24;;;;;;;15.60;3.10;;;;;;;14.52;61.01;98515.70;235837;1195;139796;-63
2021/09/24 09:16:34;;;;;;;13.40;2.90;;;;;;;14.55;61.10;98522.40;235956;1195;139623;-62
2021/09/24 09:21:42;;;;;;;10.10;2.20;;;;;;;14.62;60.95;98525.39;235836;1195;140498;-62
2021/09/24 09:26:46;;;;;;;12.80;2.70;;;;;;;14.64;60.48;98524.15;235830;1194;138259;-63
2021/09/24 09:32:00;;;;;;;11.00;2.90;;;;;;;14.66;60.26;98530.00;235911;1195;139258;-63
2021/09/24 09:37:20;;;;;;;15.10;3.30;;;;;;;14.66;60.27;98534.27;235960;1195;140374;-63
2021/09/24 09:42:31;;;;;;;11.00;2.30;;;;;;;14.65;60.11;98536.90;235922;1195;140807;-63
2021/09/24 09:47:38;;;;;;;10.70;2.50;;;;;;;14.64;60.02;98544.61;235780;1195;140006;-62
2021/09/24 09:52:58;;;;;;;12.50;2.90;;;;;;;14.67;60.00;98554.03;235976;1195;140237;-63
2021/09/24 09:58:06;;;;;;;182.20;112.00;;;;;;;14.74;60.16;98563.21;236416;1195;140346;-64
2021/09/24 10:03:11;;;;;;;15.10;3.70;;;;;;;14.93;60.16;98563.02;236126;1195;139431;-64
2021/09/24 10:08:23;;;;;;;14.00;3.20;;;;;;;15.00;60.05;98571.48;236213;1195;139045;-63
2021/09/24 10:13:28;;;;;;;17.30;3.10;;;;;;;15.02;59.88;98582.61;236159;1194;138997;-63
2021/09/24 10:18:33;;;;;;;12.90;3.10;;;;;;;15.06;59.82;98584.22;236119;1195;140044;-64
2021/09/24 10:23:36;;;;;;;11.40;3.10;;;;;;;15.09;59.60;98582.12;236011;1195;140287;-63
2021/09/24 10:28:42;;;;;;;10.10;2.60;;;;;;;15.16;59.70;98588.66;236255;1195;138781;-62
2021/09/24 10:33:55;;;;;;;7.60;2.70;;;;;;;15.29;59.37;98598.60;235863;1195;139099;-62
2021/09/24 10:38:59;;;;;;;10.60;2.70;;;;;;;15.33;59.17;98595.76;236088;1195;139678;-62
2021/09/24 10:44:02;;;;;;;8.30;3.00;;;;;;;15.34;59.08;98588.48;236020;1195;138863;-62
2021/09/24 10:49:19;;;;;;;8.90;2.60;;;;;;;15.33;58.94;98594.83;236133;1195;139173;-62
2021/09/24 10:54:23;;;;;;;7.60;2.40;;;;;;;15.32;58.63;98592.08;235997;1194;139453;-62
2021/09/24 10:59:33;;;;;;;8.00;2.50;;;;;;;15.37;58.74;98587.70;236099;1190;140626;-61
2021/09/24 11:04:44;;;;;;;132.00;76.10;;;;;;;15.40;58.53;98593.89;235820;1195;138402;-59
2021/09/24 11:09:52;;;;;;;12.10;3.60;;;;;;;15.45;58.50;98599.38;235772;1194;139663;-60
2021/09/24 11:15:16;;;;;;;8.30;2.50;;;;;;;15.50;58.46;98610.14;235572;1195;139534;-62
2021/09/24 11:20:31;;;;;;;5.80;2.00;;;;;;;15.47;57.99;98604.48;236274;1195;139987;-60
2021/09/24 11:25:34;;;;;;;7.70;2.30;;;;;;;15.43;58.08;98612.41;235661;1195;138698;-60
2021/09/24 11:30:47;;;;;;;8.30;2.50;;;;;;;15.38;58.12;98614.13;235998;1195;139722;-62
2021/09/24 11:35:51;;;;;;;7.10;2.70;;;;;;;15.33;58.21;98616.30;235957;1194;140147;-60
2021/09/24 11:40:57;;;;;;;5.50;2.30;;;;;;;15.32;58.04;98615.66;236136;1195;140511;-60
2021/09/24 11:46:10;;;;;;;9.60;2.80;;;;;;;15.36;58.18;98612.98;235800;1195;139299;-65
2021/09/24 11:51:20;;;;;;;80.30;48.40;;;;;;;15.53;58.38;98601.85;236022;1194;139137;-62
2021/09/24 11:56:32;;;;;;;10.00;3.90;;;;;;;15.73;58.54;98594.14;236044;1195;141788;-62
2021/09/24 12:01:36;;;;;;;8.60;2.90;;;;;;;15.86;58.20;98589.77;236093;1195;138952;-63
2021/09/24 12:06:42;;;;;;;5.60;2.40;;;;;;;15.98;57.96;98601.22;235941;1196;138916;-59
2021/09/24 12:11:51;;;;;;;5.00;2.00;;;;;;;16.07;57.78;98591.98;236054;1195;139747;-62
2021/09/24 12:16:54;;;;;;;9.80;2.50;;;;;;;16.06;57.51;98591.01;235893;1196;140404;-62
2021/09/24 12:21:59;;;;;;;9.20;2.70;;;;;;;16.03;57.16;98595.69;236013;1195;138732;-62
2021/09/24 12:27:06;;;;;;;9.30;2.20;;;;;;;16.01;56.96;98603.64;235917;1195;138455;-64
2021/09/24 12:32:18;;;;;;;8.40;2.50;;;;;;;16.03;57.06;98603.21;236243;1187;139627;-62
2021/09/24 12:37:44;;;;;;;14.80;2.80;;;;;;;16.03;56.71;98607.74;236203;1194;139543;-62
2021/09/24 12:42:56;;;;;;;8.70;2.40;;;;;;;16.00;56.88;98613.92;236236;1195;139246;-60
2021/09/24 12:48:15;;;;;;;8.40;2.10;;;;;;;15.98;56.58;98614.65;235812;1187;139771;-63
2021/09/24 12:53:19;;;;;;;6.70;2.20;;;;;;;15.95;56.43;98614.67;235560;1189;140215;-63
2021/09/24 12:58:36;;;;;;;9.30;2.50;;;;;;;15.97;56.38;98616.16;236172;1195;138951;-62
2021/09/24 13:03:42;;;;;;;143.80;84.30;;;;;;;16.03;56.32;98612.85;236039;1194;139098;-61
2021/09/24 13:08:46;;;;;;;10.30;2.90;;;;;;;16.12;56.13;98614.80;235916;1195;140603;-61
2021/09/24 13:13:52;;;;;;;9.40;2.90;;;;;;;16.14;56.07;98620.82;235862;1194;138996;-61
2021/09/24 13:18:56;;;;;;;8.90;2.60;;;;;;;16.19;55.86;98620.59;236025;1195;139015;-61
2021/09/24 13:24:01;;;;;;;10.80;2.50;;;;;;;16.21;55.84;98626.62;235731;1195;139131;-60
2021/09/24 13:29:05;;;;;;;7.90;2.40;;;;;;;16.36;55.70;98619.74;235321;1195;139559;-62
2021/09/24 13:34:08;;;;;;;8.60;2.30;;;;;;;16.53;55.42;98620.05;235809;1195;139466;-65
2021/09/24 13:39:12;;;;;;;8.50;2.30;;;;;;;16.78;55.65;98624.77;235633;1196;142171;-64
2021/09/24 13:44:15;;;;;;;14.30;4.40;;;;;;;16.89;54.95;98635.23;236011;1195;139410;-61
2021/09/24 13:49:18;;;;;;;11.70;4.60;;;;;;;16.86;54.78;98634.11;235642;1195;140286;-61
2021/09/24 13:54:21;;;;;;;10.50;2.60;;;;;;;16.76;54.82;98631.35;235854;1195;141303;-62
2021/09/24 13:59:25;;;;;;;6.30;2.40;;;;;;;16.65;54.69;98629.90;236002;1196;139350;-61
2021/09/24 14:04:28;;;;;;;15.50;2.70;;;;;;;16.58;54.68;98634.86;236134;1195;235234;-61
2021/09/24 14:09:31;;;;;;;21.30;11.30;;;;;;;16.53;54.85;98634.27;235641;1195;139410;-64
2021/09/24 14:14:37;;;;;;;10.90;3.20;;;;;;;16.47;54.58;98630.01;236123;1195;140269;-63
2021/09/24 14:19:40;;;;;;;10.50;2.80;;;;;;;16.40;54.48;98631.00;235240;1195;140087;-62
2021/09/24 14:24:48;;;;;;;12.40;3.30;;;;;;;16.36;54.38;98634.39;235756;1195;139254;-63
2021/09/24 14:29:51;;;;;;;12.10;3.00;;;;;;;16.31;54.63;98627.16;236181;1195;139738;-62
2021/09/24 14:34:54;;;;;;;9.70;2.60;;;;;;;16.27;54.40;98630.36;236167;1195;138797;-64
2021/09/24 14:39:58;;;;;;;15.00;2.90;;;;;;;16.24;54.53;98636.27;236214;1195;139650;-62
2021/09/24 14:45:03;;;;;;;11.40;2.90;;;;;;;16.20;54.65;98636.39;236297;1195;139929;-61
2021/09/24 14:50:08;;;;;;;13.10;2.70;;;;;;;16.18;54.85;98644.98;235701;1196;139424;-59
2021/09/24 14:55:11;;;;;;;12.00;2.90;;;;;;;16.21;55.01;98640.45;235413;1195;140351;-64
2021/09/24 15:00:15;;;;;;;15.40;3.80;;;;;;;16.26;55.12;98639.60;235865;1194;140925;-61
2021/09/24 15:05:18;;;;;;;13.00;2.70;;;;;;;16.28;55.02;98641.55;236158;1195;140200;-62
2021/09/24 15:10:22;;;;;;;12.10;2.90;;;;;;;16.30;55.14;98640.82;235955;1195;141621;-62
2021/09/24 15:15:25;;;;;;;14.20;2.80;;;;;;;16.32;54.99;98646.23;235391;1195;139100;-62
2021/09/24 15:20:28;;;;;;;10.60;2.40;;;;;;;16.28;54.63;98646.61;235995;1195;139810;-60
2021/09/24 15:25:32;;;;;;;12.00;3.00;;;;;;;16.25;54.56;98649.02;236072;1195;139304;-62
2021/09/24 15:30:35;;;;;;;264.70;147.90;;;;;;;16.23;54.54;98648.32;235755;1196;139099;-63
2021/09/24 15:35:38;;;;;;;25.60;9.40;;;;;;;16.21;54.55;98646.52;235265;1195;140572;-62
2021/09/24 15:40:41;;;;;;;14.70;3.50;;;;;;;16.20;54.37;98651.78;236062;1195;139518;-62
2021/09/24 15:45:45;;;;;;;14.50;3.40;;;;;;;16.12;54.51;98657.50;236139;1195;138888;-61
2021/09/24 15:50:48;;;;;;;11.40;2.60;;;;;;;16.05;54.60;98660.13;235690;1195;138670;-60
2021/09/24 15:55:51;;;;;;;17.00;2.90;;;;;;;16.00;54.70;98662.40;235817;1195;140903;-60
2021/09/24 16:00:54;;;;;;;18.50;3.30;;;;;;;15.96;54.62;98665.61;235748;1195;139160;-59
2021/09/24 16:05:57;;;;;;;13.10;3.70;;;;;;;15.92;54.75;98670.67;235964;1196;138909;-59
2021/09/24 16:11:01;;;;;;;20.20;5.50;;;;;;;15.88;54.83;98672.96;236078;1195;139965;-64
2021/09/24 16:16:04;;;;;;;17.40;3.40;;;;;;;15.82;54.86;98677.06;236095;1194;139925;-60
2021/09/24 16:21:08;;;;;;;15.00;3.20;;;;;;;15.77;54.93;98684.30;236131;1195;139437;-59
2021/09/24 16:26:11;;;;;;;14.80;3.40;;;;;;;15.72;55.08;98688.35;236022;1195;139374;-61
2021/09/24 16:31:14;;;;;;;14.30;3.70;;;;;;;15.70;55.11;98701.44;235933;1195;139346;-59
2021/09/24 16:36:18;;;;;;;17.80;3.30;;;;;;;15.68;55.23;98711.93;236004;1195;139714;-58
2021/09/24 16:41:21;;;;;;;19.00;4.00;;;;;;;15.61;55.36;98714.36;236049;1195;140455;-61
2021/09/24 16:46:24;;;;;;;15.10;4.10;;;;;;;15.53;55.42;98724.16;236013;1195;138771;-60
2021/09/24 16:51:32;;;;;;;15.10;3.60;;;;;;;15.48;55.60;98729.23;235843;1195;139345;-64
2021/09/24 16:56:37;;;;;;;12.10;4.20;;;;;;;15.43;55.68;98734.35;236175;1195;139624;-59
2021/09/24 17:01:40;;;;;;;19.70;3.70;;;;;;;15.38;55.75;98744.02;236148;1194;139532;-59
2021/09/24 17:06:43;;;;;;;15.30;3.80;;;;;;;15.33;55.90;98752.13;235416;1195;140613;-60
2021/09/24 17:11:46;;;;;;;22.30;4.70;;;;;;;15.29;55.88;98755.88;235686;1195;139207;-61
2021/09/24 17:16:50;;;;;;;11.60;4.00;;;;;;;15.25;56.19;98755.16;235651;1195;138509;-62
2021/09/24 17:21:53;;;;;;;18.90;4.60;;;;;;;15.24;56.40;98757.98;235820;1195;139383;-61
2021/09/24 17:26:56;;;;;;;206.80;157.90;;;;;;;15.20;56.33;98757.54;235807;1195;140472;-62
2021/09/24 17:31:59;;;;;;;48.80;26.10;;;;;;;15.24;56.58;98765.30;235691;1195;139483;-61
2021/09/24 17:37:03;;;;;;;20.00;6.90;;;;;;;15.38;57.29;98772.98;235880;1195;139164;-62
2021/09/24 17:42:06;;;;;;;14.50;4.80;;;;;;;15.46;56.67;98785.39;235958;1195;138938;-60
2021/09/24 17:47:09;;;;;;;14.10;4.20;;;;;;;15.42;56.48;98794.48;235787;1195;139953;-60
2021/09/24 17:52:12;;;;;;;18.70;5.00;;;;;;;15.36;56.60;98798.94;235871;1195;138998;-61
2021/09/24 17:57:15;;;;;;;19.30;4.70;;;;;;;15.31;56.55;98800.06;235372;1196;139311;-60
2021/09/24 18:02:19;;;;;;;16.30;4.70;;;;;;;15.26;56.52;98802.98;235672;1195;140474;-61
2021/09/24 18:07:22;;;;;;;19.00;4.30;;;;;;;15.19;56.62;98807.36;235934;1195;139266;-60
2021/09/24 18:12:26;;;;;;;210.30;157.40;;;;;;;15.16;56.75;98821.56;235910;1195;139227;-60
2021/09/24 18:17:29;;;;;;;20.50;8.90;;;;;;;15.20;57.23;98833.72;235623;1195;139429;-60
2021/09/24 18:22:32;;;;;;;20.80;6.60;;;;;;;15.20;57.05;98831.58;235909;1195;138663;-59
2021/09/24 18:27:35;;;;;;;16.80;5.50;;;;;;;15.13;56.86;98835.16;235853;1195;139887;-61
2021/09/24 18:32:39;;;;;;;20.70;5.70;;;;;;;15.05;56.79;98839.05;236148;1194;138827;-61
2021/09/24 18:37:44;;;;;;;20.80;6.30;;;;;;;14.97;56.90;98847.44;235654;1196;138377;-59
2021/09/24 18:42:47;;;;;;;18.80;5.20;;;;;;;14.89;57.11;98849.85;235754;1195;138750;-61
2021/09/24 18:47:50;;;;;;;18.30;6.10;;;;;;;14.82;56.98;98862.26;235825;1195;138903;-60
2021/09/24 18:52:53;;;;;;;18.10;6.20;;;;;;;14.79;57.23;98866.77;236001;1195;139152;-59
2021/09/24 18:57:57;;;;;;;21.80;6.80;;;;;;;14.77;57.30;98873.55;235775;1196;139795;-60
2021/09/24 19:03:02;;;;;;;20.80;6.60;;;;;;;14.71;57.26;98876.70;235890;1195;139489;-59
2021/09/24 19:08:07;;;;;;;25.70;7.20;;;;;;;14.63;57.27;98874.19;236242;1195;139453;-60
2021/09/24 19:13:10;;;;;;;21.40;7.00;;;;;;;14.58;57.39;98886.73;236097;1195;139449;-59
2021/09/24 19:18:13;;;;;;;69.00;42.60;;;;;;;14.56;57.80;98899.56;235796;1196;139071;-59
2021/09/24 19:23:16;;;;;;;21.40;8.30;;;;;;;14.61;57.71;98904.28;235818;1189;138405;-60
2021/09/24 19:28:19;;;;;;;17.10;7.40;;;;;;;14.56;57.65;98904.21;235931;1195;139559;-61
2021/09/24 19:33:22;;;;;;;24.70;6.90;;;;;;;14.48;57.71;98907.48;235782;1195;138700;-61
2021/09/24 19:38:26;;;;;;;20.10;7.00;;;;;;;14.39;57.69;98908.34;236033;1195;139072;-61
2021/09/24 19:43:29;;;;;;;23.50;7.70;;;;;;;14.38;57.76;98921.86;235941;1195;139283;-61
2021/09/24 19:48:32;;;;;;;21.30;7.80;;;;;;;14.35;57.92;98922.99;236287;1195;139259;-60
2021/09/24 19:53:35;;;;;;;22.50;8.50;;;;;;;14.31;58.10;98925.96;236075;1195;139145;-60
2021/09/24 19:58:39;;;;;;;24.10;9.40;;;;;;;14.25;58.09;98929.15;235976;1195;140493;-60
2021/09/24 20:03:42;;;;;;;22.10;8.80;;;;;;;14.21;58.44;98934.40;235887;1195;139663;-60
2021/09/24 20:08:46;;;;;;;120.40;81.10;;;;;;;14.23;58.69;98937.29;235946;1195;140246;-60
2021/09/24 20:13:49;;;;;;;24.60;8.50;;;;;;;14.30;58.82;98944.08;236260;1195;140145;-59
2021/09/24 20:18:52;;;;;;;23.20;9.00;;;;;;;14.30;58.72;98941.92;235920;1194;139116;-59
2021/09/24 20:23:55;;;;;;;26.50;9.30;;;;;;;14.31;58.80;98944.17;236179;1194;139056;-58
2021/09/24 20:28:58;;;;;;;25.00;9.30;;;;;;;14.30;58.91;98943.74;236248;1195;139428;-60
2021/09/24 20:34:02;;;;;;;25.30;9.50;;;;;;;14.27;59.03;98939.52;236015;1194;139193;-60
2021/09/24 20:39:05;;;;;;;22.20;9.70;;;;;;;14.22;59.10;98941.63;235803;1196;140662;-61
2021/09/24 20:44:09;;;;;;;21.90;9.50;;;;;;;14.16;59.15;98946.98;235968;1195;138732;-59
2021/09/24 20:49:13;;;;;;;23.60;9.00;;;;;;;14.12;59.33;98951.88;236063;1195;139481;-58
2021/09/24 20:54:16;;;;;;;28.60;9.30;;;;;;;14.08;59.45;98953.13;236166;1195;138825;-60
2021/09/24 20:59:19;;;;;;;26.80;9.20;;;;;;;14.06;59.73;98949.36;235874;1195;139164;-61
2021/09/24 21:04:23;;;;;;;24.10;8.20;;;;;;;14.07;59.88;98952.12;235941;1195;208113;-60
2021/09/24 21:09:26;;;;;;;19.30;7.70;;;;;;;14.06;59.99;98949.73;235364;1195;139334;-61
2021/09/24 21:14:29;;;;;;;21.10;8.20;;;;;;;14.07;60.26;98954.23;236307;1195;139248;-61
2021/09/24 21:19:32;;;;;;;20.20;7.40;;;;;;;14.12;60.44;98955.45;235573;1195;139688;-62
2021/09/24 21:24:38;;;;;;;18.70;7.40;;;;;;;14.20;60.60;98959.16;235970;1195;139377;-61
2021/09/24 21:29:42;;;;;;;17.00;7.60;;;;;;;14.30;60.82;98960.48;235998;1194;140113;-61
2021/09/24 21:34:45;;;;;;;17.00;6.70;;;;;;;14.44;61.06;98958.13;236066;1195;139059;-61
2021/09/24 21:39:48;;;;;;;18.60;7.00;;;;;;;14.55;61.07;98965.20;235817;1195;138719;-60
2021/09/24 21:44:51;;;;;;;16.40;5.80;;;;;;;14.61;61.19;98964.86;235926;1195;139028;-61
2021/09/24 21:49:54;;;;;;;14.80;5.70;;;;;;;14.63;61.24;98963.95;236483;1195;139693;-60
2021/09/24 21:54:57;;;;;;;14.50;6.00;;;;;;;14.66;61.18;98965.33;236118;1195;138435;-61
2021/09/24 22:00:01;;;;;;;16.50;5.80;;;;;;;14.70;61.23;98965.21;235325;1195;138826;-65
2021/09/24 22:05:14;;;;;;;18.40;7.00;;;;;;;14.70;61.46;98955.52;235507;1195;139178;-62
2021/09/24 22:10:18;;;;;;;18.40;6.20;;;;;;;14.70;61.50;98958.39;236153;1195;139720;-61
2021/09/24 22:15:23;;;;;;;15.10;5.80;;;;;;;14.69;61.57;98958.90;236059;1195;138656;-61
2021/09/24 22:20:29;;;;;;;12.50;5.80;;;;;;;14.71;61.69;98955.31;235606;1195;141281;-63
2021/09/24 22:25:33;;;;;;;15.90;6.40;;;;;;;14.77;61.90;98960.48;235840;1194;139889;-61
2021/09/24 22:30:36;;;;;;;13.70;5.40;;;;;;;14.86;61.85;98969.27;235599;1195;139153;-60
2021/09/24 22:35:40;;;;;;;16.20;6.60;;;;;;;14.90;61.96;98973.91;236075;1195;138341;-61
2021/09/24 22:40:43;;;;;;;20.00;7.00;;;;;;;14.91;61.96;98979.38;235831;1195;138575;-60
2021/09/24 22:45:46;;;;;;;12.90;6.30;;;;;;;14.94;61.99;98981.85;235589;1195;139733;-58
2021/09/24 22:50:49;;;;;;;13.60;5.60;;;;;;;14.93;62.05;98980.86;236298;1195;139277;-60
2021/09/24 22:55:52;;;;;;;15.20;6.00;;;;;;;14.95;62.01;98982.52;235867;1195;138857;-62
2021/09/24 23:00:55;;;;;;;15.40;6.30;;;;;;;14.95;62.21;98981.95;235803;1194;138885;-61
2021/09/24 23:06:02;;;;;;;13.30;5.30;;;;;;;14.94;62.27;98975.44;235424;1195;138618;-62
2021/09/24 23:11:05;;;;;;;11.10;5.20;;;;;;;14.98;62.40;98975.45;236235;1195;139896;-62